Time;durP1;ratioP1;P1;durP2;ratioP2;P2;SDS_P1;SDS_P2;PMS_P1;PMS_P2;Temp;Humidity;BMP_temperature;BMP_pressure;BME280_temperature;BME280_humidity;BME280_pressure;Samples;Min_cycle;Max_cycle;Signal;HPM_P1;HPM_P2
2023/03/21 00:00:52;;;;;;;;;;;9.30;99.90;;;;;;5093795;28;19979;-80
2023/03/21 00:03:17;;;;;;;;;;;9.30;99.90;;;;;;5097428;27;20401;-79
2023/03/21 00:05:50;;;;;;;;;;;9.40;99.90;;;;;;5077124;28;19924;-80
2023/03/21 00:08:16;;;;;;;;;;;9.40;99.90;;;;;;5095749;27;19927;-80
2023/03/21 00:10:42;;;;;;;;;;;9.40;99.90;;;;;;5075305;28;19928;-80
2023/03/21 00:13:07;;;;;;;;;;;9.40;99.90;;;;;;5114144;27;19924;-80
2023/03/21 00:15:33;;;;;;;;;;;9.40;99.90;;;;;;5102168;27;19931;-80
2023/03/21 00:18:02;;;;;;;;;;;9.40;99.90;;;;;;5099224;27;19931;-79
2023/03/21 00:20:33;;;;;;;;;;;9.40;99.90;;;;;;5071426;27;19954;-80
2023/03/21 00:23:00;;;;;;;;;;;9.40;99.90;;;;;;5068136;27;19924;-80
2023/03/21 00:25:26;;;;;;;;;;;9.40;99.90;;;;;;5097642;27;20006;-80
2023/03/21 00:27:52;;;;;;;;;;;9.40;99.90;;;;;;5072140;27;19971;-80
2023/03/21 00:30:17;;;;;;;;;;;9.40;99.90;;;;;;5067247;27;19938;-80
2023/03/21 00:32:44;;;;;;;;;;;9.40;99.90;;;;;;5114266;27;19924;-80
2023/03/21 00:35:10;;;;;;;;;;;9.40;99.90;;;;;;5089927;28;19943;-80
2023/03/21 00:37:36;;;;;;;;;;;9.40;99.90;;;;;;5098801;28;19923;-80
2023/03/21 00:40:02;;;;;;;;;;;9.40;99.90;;;;;;5102187;28;20012;-80
2023/03/21 00:42:28;;;;;;;;;;;9.40;99.90;;;;;;5084590;28;20020;-80
2023/03/21 00:44:53;;;;;;;;;;;9.40;99.90;;;;;;5068479;28;20394;-80
2023/03/21 00:47:19;;;;;;;;;;;9.40;99.90;;;;;;5111067;28;19996;-80
2023/03/21 00:49:45;;;;;;;;;;;9.50;99.90;;;;;;5100962;28;20496;-80
2023/03/21 00:52:10;;;;;;;;;;;9.40;99.90;;;;;;5092024;27;19934;-80
2023/03/21 00:54:36;;;;;;;;;;;9.50;99.90;;;;;;5070575;28;20291;-80
2023/03/21 00:57:02;;;;;;;;;;;9.50;99.90;;;;;;5084989;28;19990;-80
2023/03/21 00:59:28;;;;;;;;;;;9.40;99.90;;;;;;5084612;28;20093;-80
2023/03/21 01:01:55;;;;;;;;;;;9.50;99.90;;;;;;5100683;27;19927;-79
2023/03/21 01:04:25;;;;;;;;;;;9.40;99.90;;;;;;5066462;28;19924;-80
2023/03/21 01:06:51;;;;;;;;;;;9.50;99.90;;;;;;5068317;28;19932;-80
2023/03/21 01:09:18;;;;;;;;;;;9.50;99.90;;;;;;5084320;28;20026;-80
2023/03/21 01:11:44;;;;;;;;;;;9.50;99.90;;;;;;5089757;28;19924;-81
2023/03/21 01:14:10;;;;;;;;;;;9.50;99.90;;;;;;5072051;28;19936;-81
2023/03/21 01:16:35;;;;;;;;;;;9.50;99.90;;;;;;5083074;28;19932;-80
2023/03/21 01:19:02;;;;;;;;;;;9.50;99.90;;;;;;5073205;28;19932;-81
2023/03/21 01:21:28;;;;;;;;;;;9.50;99.90;;;;;;5071674;27;19938;-81
2023/03/21 01:23:53;;;;;;;;;;;9.50;99.90;;;;;;5120257;27;20019;-81
2023/03/21 01:26:19;;;;;;;;;;;9.50;99.90;;;;;;5082126;28;19928;-80
2023/03/21 01:28:45;;;;;;;;;;;9.50;99.90;;;;;;5081793;28;19935;-81
2023/03/21 01:31:12;;;;;;;;;;;9.50;99.90;;;;;;5122837;27;19928;-80
2023/03/21 01:33:38;;;;;;;;;;;9.50;99.90;;;;;;5083398;28;19963;-80
2023/03/21 01:36:05;;;;;;;;;;;9.50;99.90;;;;;;5071419;28;19924;-81
2023/03/21 01:38:30;;;;;;;;;;;9.50;99.90;;;;;;5080959;28;19949;-81
2023/03/21 01:40:58;;;;;;;;;;;9.50;99.90;;;;;;5073675;28;19928;-80
2023/03/21 01:43:25;;;;;;;;;;;9.50;99.90;;;;;;5118956;28;19973;-80
2023/03/21 01:46:09;;;;;;;;;;;9.40;99.90;;;;;;5087895;28;19998;-80
2023/03/21 01:48:40;;;;;;;;;;;9.40;99.90;;;;;;5078974;28;19924;-81
2023/03/21 01:51:06;;;;;;;;;;;9.40;99.90;;;;;;5081146;28;19935;-80
2023/03/21 01:53:33;;;;;;;;;;;9.40;99.90;;;;;;5069527;28;19924;-80
2023/03/21 01:56:00;;;;;;;;;;;9.50;99.90;;;;;;5084125;28;19975;-80
2023/03/21 01:58:26;;;;;;;;;;;9.50;99.90;;;;;;5081257;28;19928;-80
2023/03/21 02:00:54;;;;;;;;;;;9.50;99.90;;;;;;5099392;28;19924;-81
2023/03/21 02:03:19;;;;;;;;;;;9.40;99.90;;;;;;5072879;28;20129;-80
2023/03/21 02:05:45;;;;;;;;;;;9.40;99.90;;;;;;5090583;28;19963;-80
2023/03/21 02:08:12;;;;;;;;;;;9.50;99.90;;;;;;5086107;28;19928;-80
2023/03/21 02:10:38;;;;;;;;;;;9.40;99.90;;;;;;5071665;28;19980;-80
2023/03/21 02:13:08;;;;;;;;;;;9.40;99.90;;;;;;5106860;28;19927;-80
2023/03/21 02:15:39;;;;;;;;;;;9.40;99.90;;;;;;5073274;28;19924;-80
2023/03/21 02:18:10;;;;;;;;;;;9.40;99.90;;;;;;5088842;28;19931;-81
2023/03/21 02:20:36;;;;;;;;;;;9.40;99.90;;;;;;5075594;28;20067;-80
2023/03/21 02:23:20;;;;;;;;;;;9.40;99.90;;;;;;5085829;28;19944;-80
2023/03/21 02:26:05;;;;;;;;;;;9.40;99.90;;;;;;5098077;28;19924;-80
2023/03/21 02:28:38;;;;;;;;;;;9.40;99.90;;;;;;5103320;28;19928;-80
2023/03/21 02:31:13;;;;;;;;;;;9.40;99.90;;;;;;5107565;28;19927;-80
2023/03/21 02:33:38;;;;;;;;;;;9.40;99.90;;;;;;5131727;27;19927;-80
2023/03/21 02:36:04;;;;;;;;;;;9.40;99.90;;;;;;5107952;27;20021;-80
2023/03/21 02:38:30;;;;;;;;;;;9.40;99.90;;;;;;5104003;28;19928;-81
2023/03/21 02:41:03;;;;;;;;;;;9.40;99.90;;;;;;5087002;28;19923;-80
2023/03/21 02:43:37;;;;;;;;;;;9.40;99.90;;;;;;5087116;28;19923;-81
2023/03/21 02:46:15;;;;;;;;;;;9.40;99.90;;;;;;5103994;28;19930;-80
2023/03/21 02:48:48;;;;;;;;;;;9.40;99.90;;;;;;5093725;28;20333;-81
2023/03/21 02:51:16;;;;;;;;;;;9.40;99.90;;;;;;5081648;28;19932;-81
2023/03/21 02:53:46;;;;;;;;;;;9.40;99.90;;;;;;5092454;28;19924;-80
2023/03/21 02:56:11;;;;;;;;;;;9.30;99.90;;;;;;5103401;28;19935;-80
2023/03/21 02:58:38;;;;;;;;;;;9.40;99.90;;;;;;5075209;28;19924;-80
2023/03/21 03:01:05;;;;;;;;;;;9.40;99.90;;;;;;5085670;27;20290;-80
2023/03/21 03:03:31;;;;;;;;;;;9.40;99.90;;;;;;5094767;27;19959;-81
2023/03/21 03:05:58;;;;;;;;;;;9.40;99.90;;;;;;5072147;27;19938;-81
2023/03/21 03:08:26;;;;;;;;;;;9.30;99.90;;;;;;5097633;27;19927;-81
2023/03/21 03:10:52;;;;;;;;;;;9.30;99.90;;;;;;5080818;27;19977;-80
2023/03/21 03:13:24;;;;;;;;;;;9.30;99.90;;;;;;5091439;27;19924;-81
2023/03/21 03:16:06;;;;;;;;;;;9.40;99.90;;;;;;5085079;28;19981;-80
2023/03/21 03:18:58;;;;;;;;;;;9.30;99.90;;;;;;5088958;28;19979;-80
2023/03/21 03:21:33;;;;;;;;;;;9.30;99.90;;;;;;5099984;27;19946;-80
2023/03/21 03:24:02;;;;;;;;;;;9.30;99.90;;;;;;5082964;28;19928;-80
2023/03/21 03:26:40;;;;;;;;;;;9.30;99.90;;;;;;5100408;28;19927;-81
2023/03/21 03:29:07;;;;;;;;;;;9.30;99.90;;;;;;5119849;27;19927;-80
2023/03/21 03:31:36;;;;;;;;;;;9.30;99.90;;;;;;5119864;27;19927;-81
2023/03/21 03:34:07;;;;;;;;;;;9.30;99.90;;;;;;5114210;27;19968;-80
2023/03/21 03:36:37;;;;;;;;;;;9.30;99.90;;;;;;5086970;28;19981;-80
2023/03/21 03:39:05;;;;;;;;;;;9.30;99.90;;;;;;5091561;27;19966;-80
2023/03/21 03:41:32;;;;;;;;;;;9.30;99.90;;;;;;5118907;27;20413;-80
2023/03/21 03:43:58;;;;;;;;;;;9.30;99.90;;;;;;5118790;27;19931;-80
2023/03/21 03:46:30;;;;;;;;;;;9.30;99.90;;;;;;5086877;27;20334;-80
2023/03/21 03:49:35;;;;;;;;;;;9.30;99.90;;;;;;5090067;28;19927;-81
2023/03/21 03:52:03;;;;;;;;;;;9.30;99.90;;;;;;5038938;28;20025;-80
2023/03/21 03:54:48;;;;;;;;;;;9.30;99.90;;;;;;5011093;28;19968;-79
2023/03/21 03:57:14;;;;;;;;;;;9.30;99.90;;;;;;5057306;28;19972;-80
2023/03/21 03:59:41;;;;;;;;;;;9.30;99.90;;;;;;5106043;27;19931;-80
2023/03/21 04:02:07;;;;;;;;;;;9.30;99.90;;;;;;5073199;28;20533;-80
2023/03/21 04:04:32;;;;;;;;;;;9.30;99.90;;;;;;5059939;28;19928;-80
2023/03/21 04:06:58;;;;;;;;;;;9.30;99.90;;;;;;5102330;28;19959;-80
2023/03/21 04:09:24;;;;;;;;;;;9.30;99.90;;;;;;5088643;28;20019;-81
2023/03/21 04:11:50;;;;;;;;;;;9.30;99.90;;;;;;5059446;27;19928;-80
2023/03/21 04:14:15;;;;;;;;;;;9.30;99.90;;;;;;5068007;28;19923;-80
2023/03/21 04:16:41;;;;;;;;;;;9.30;99.90;;;;;;5058695;28;19932;-80
2023/03/21 04:19:07;;;;;;;;;;;9.30;99.90;;;;;;5124690;27;19927;-81
2023/03/21 04:21:32;;;;;;;;;;;9.30;99.90;;;;;;5065669;27;19923;-81
2023/03/21 04:23:58;;;;;;;;;;;9.30;99.90;;;;;;5079222;27;19967;-80
2023/03/21 04:26:24;;;;;;;;;;;9.30;99.90;;;;;;5061621;27;19928;-80
2023/03/21 04:28:50;;;;;;;;;;;9.30;99.90;;;;;;5097999;28;20640;-80
2023/03/21 04:31:16;;;;;;;;;;;9.30;99.90;;;;;;5081700;27;20406;-80
2023/03/21 04:33:42;;;;;;;;;;;9.30;99.90;;;;;;5090304;27;19997;-80
2023/03/21 04:36:08;;;;;;;;;;;9.30;99.90;;;;;;5065708;28;20362;-80
2023/03/21 04:38:35;;;;;;;;;;;9.30;99.90;;;;;;5064395;27;19924;-80
2023/03/21 04:41:01;;;;;;;;;;;9.30;99.90;;;;;;5115252;27;19939;-80
2023/03/21 04:43:27;;;;;;;;;;;9.30;99.90;;;;;;5090448;28;19931;-81
2023/03/21 04:45:53;;;;;;;;;;;9.30;99.90;;;;;;5066409;28;19924;-80
2023/03/21 04:48:19;;;;;;;;;;;9.30;99.90;;;;;;5093924;28;19931;-81
2023/03/21 04:50:45;;;;;;;;;;;9.30;99.90;;;;;;5085985;28;20608;-81
2023/03/21 04:53:11;;;;;;;;;;;9.30;99.90;;;;;;5099083;28;19942;-80
2023/03/21 04:55:37;;;;;;;;;;;9.30;99.90;;;;;;5096934;28;19984;-81
2023/03/21 04:58:03;;;;;;;;;;;9.30;99.90;;;;;;5069299;28;19939;-80
2023/03/21 05:00:29;;;;;;;;;;;9.30;99.90;;;;;;5069365;28;19924;-80
2023/03/21 05:02:56;;;;;;;;;;;9.30;99.90;;;;;;5087502;28;19939;-81
2023/03/21 05:05:22;;;;;;;;;;;9.30;99.90;;;;;;5083222;28;19935;-81
2023/03/21 05:07:47;;;;;;;;;;;9.30;99.90;;;;;;5082530;28;19955;-81
2023/03/21 05:10:13;;;;;;;;;;;9.30;99.90;;;;;;5086284;28;20331;-80
2023/03/21 05:12:39;;;;;;;;;;;9.30;99.90;;;;;;5098867;28;19954;-80
2023/03/21 05:15:05;;;;;;;;;;;9.30;99.90;;;;;;5074966;28;19931;-81
2023/03/21 05:17:30;;;;;;;;;;;9.30;99.90;;;;;;5070974;28;19924;-81
2023/03/21 05:19:56;;;;;;;;;;;9.30;99.90;;;;;;5091710;28;20001;-80
2023/03/21 05:22:23;;;;;;;;;;;9.30;99.90;;;;;;5091099;28;19924;-81
2023/03/21 05:24:49;;;;;;;;;;;9.20;99.90;;;;;;5115573;27;20357;-81
2023/03/21 05:27:32;;;;;;;;;;;9.30;99.90;;;;;;5094307;28;20011;-81
2023/03/21 05:30:08;;;;;;;;;;;9.20;99.90;;;;;;5091435;28;19924;-81
2023/03/21 05:32:34;;;;;;;;;;;9.30;99.90;;;;;;5098040;28;19946;-81
2023/03/21 05:35:00;;;;;;;;;;;9.20;99.90;;;;;;5098615;28;19928;-81
2023/03/21 05:37:26;;;;;;;;;;;9.30;99.90;;;;;;5096632;28;19924;-81
2023/03/21 05:39:51;;;;;;;;;;;9.30;99.90;;;;;;5096656;28;20007;-81
2023/03/21 05:42:17;;;;;;;;;;;9.20;99.90;;;;;;5080306;28;19928;-81
2023/03/21 05:44:43;;;;;;;;;;;9.20;99.90;;;;;;5081794;28;20027;-81
2023/03/21 05:47:10;;;;;;;;;;;9.20;99.90;;;;;;5102184;28;19954;-81
2023/03/21 05:49:35;;;;;;;;;;;9.20;99.90;;;;;;5097747;28;19924;-82
2023/03/21 05:52:01;;;;;;;;;;;9.20;99.90;;;;;;5065956;28;19931;-82
2023/03/21 05:54:27;;;;;;;;;;;9.20;99.90;;;;;;5096950;28;20467;-81
2023/03/21 05:56:52;;;;;;;;;;;9.30;99.90;;;;;;5093419;28;19930;-81
2023/03/21 05:59:18;;;;;;;;;;;9.20;99.90;;;;;;5101894;28;19924;-81
2023/03/21 06:01:46;;;;;;;;;;;9.20;99.90;;;;;;5072743;28;20014;-81
2023/03/21 06:04:12;;;;;;;;;;;9.30;99.90;;;;;;5083372;28;19970;-81
2023/03/21 06:06:37;;;;;;;;;;;9.20;99.90;;;;;;5089032;28;19958;-80
2023/03/21 06:09:03;;;;;;;;;;;9.20;99.90;;;;;;5072581;28;19925;-80
2023/03/21 06:11:30;;;;;;;;;;;9.30;99.90;;;;;;5103554;28;19931;-80
2023/03/21 06:13:55;;;;;;;;;;;9.20;99.90;;;;;;5080231;28;20014;-80
2023/03/21 06:16:21;;;;;;;;;;;9.30;99.90;;;;;;5104269;28;19982;-80
2023/03/21 06:18:46;;;;;;;;;;;9.30;99.90;;;;;;5096220;28;19938;-80
2023/03/21 06:21:12;;;;;;;;;;;9.30;99.90;;;;;;5103028;28;19928;-80
2023/03/21 06:23:38;;;;;;;;;;;9.30;99.90;;;;;;5092129;28;19924;-80
2023/03/21 06:26:04;;;;;;;;;;;9.30;99.90;;;;;;5091651;28;19924;-81
2023/03/21 06:28:30;;;;;;;;;;;9.30;99.90;;;;;;5085378;28;19934;-80
2023/03/21 06:30:55;;;;;;;;;;;9.30;99.90;;;;;;5083571;28;20467;-79
2023/03/21 06:33:21;;;;;;;;;;;9.30;99.90;;;;;;5098450;28;20416;-80
2023/03/21 06:35:51;;;;;;;;;;;9.30;99.90;;;;;;5067455;28;19935;-79
2023/03/21 06:38:16;;;;;;;;;;;9.30;99.90;;;;;;5084220;28;19924;-79
2023/03/21 06:40:44;;;;;;;;;;;9.30;99.90;;;;;;5067087;28;19930;-79
2023/03/21 06:43:09;;;;;;;;;;;9.40;99.90;;;;;;5134733;27;19928;-79
2023/03/21 06:45:35;;;;;;;;;;;9.40;99.90;;;;;;5105913;28;19931;-79
2023/03/21 06:48:00;;;;;;;;;;;9.30;99.90;;;;;;5086418;28;20351;-79
2023/03/21 06:50:26;;;;;;;;;;;9.40;99.90;;;;;;5066116;28;19940;-80
2023/03/21 06:52:51;;;;;;;;;;;9.40;99.90;;;;;;5066448;28;20003;-80
2023/03/21 06:55:18;;;;;;;;;;;9.30;99.90;;;;;;5079570;28;19925;-79
2023/03/21 06:57:44;;;;;;;;;;;9.40;99.90;;;;;;5097675;28;19984;-79
2023/03/21 07:00:10;;;;;;;;;;;9.40;99.90;;;;;;5080048;28;19928;-79
2023/03/21 07:02:37;;;;;;;;;;;9.40;99.90;;;;;;5062616;28;20367;-79
2023/03/21 07:05:03;;;;;;;;;;;9.40;99.90;;;;;;5079148;28;19924;-79
2023/03/21 07:07:29;;;;;;;;;;;9.40;99.90;;;;;;5070300;28;19936;-79
2023/03/21 07:09:54;;;;;;;;;;;9.40;99.90;;;;;;5094531;28;20371;-79
2023/03/21 07:12:21;;;;;;;;;;;9.40;99.90;;;;;;5070222;28;19936;-79
2023/03/21 07:14:47;;;;;;;;;;;9.40;99.90;;;;;;5057502;28;19924;-79
2023/03/21 07:17:12;;;;;;;;;;;9.40;99.90;;;;;;5074076;28;19936;-79
2023/03/21 07:19:38;;;;;;;;;;;9.40;99.90;;;;;;5067614;28;19932;-79
2023/03/21 07:22:04;;;;;;;;;;;9.40;99.90;;;;;;5075828;28;19991;-79
2023/03/21 07:24:29;;;;;;;;;;;9.40;99.90;;;;;;5096089;28;20480;-78
2023/03/21 07:26:55;;;;;;;;;;;9.40;99.90;;;;;;5081233;28;19940;-78
2023/03/21 07:29:22;;;;;;;;;;;9.40;99.90;;;;;;5065350;28;19935;-79
2023/03/21 07:31:48;;;;;;;;;;;9.40;99.90;;;;;;5101862;28;19931;-79
2023/03/21 07:34:15;;;;;;;;;;;9.40;99.90;;;;;;5050937;28;19924;-79
2023/03/21 07:36:41;;;;;;;;;;;9.40;99.90;;;;;;5052709;28;19924;-78
2023/03/21 07:39:06;;;;;;;;;;;9.40;99.90;;;;;;5047088;28;20055;-77
2023/03/21 07:41:32;;;;;;;;;;;9.40;99.90;;;;;;5073203;28;19928;-78
2023/03/21 07:43:57;;;;;;;;;;;9.40;99.90;;;;;;5079624;28;20007;-78
2023/03/21 07:46:23;;;;;;;;;;;9.40;99.90;;;;;;5124033;27;19924;-78
2023/03/21 07:48:49;;;;;;;;;;;9.30;99.90;;;;;;5096640;28;20391;-78
2023/03/21 07:51:14;;;;;;;;;;;9.40;99.90;;;;;;5073283;28;19932;-78
2023/03/21 07:53:40;;;;;;;;;;;9.30;99.90;;;;;;5086785;28;19932;-78
2023/03/21 07:56:06;;;;;;;;;;;9.40;99.90;;;;;;5074747;28;19945;-79
2023/03/21 07:58:33;;;;;;;;;;;9.40;99.90;;;;;;5090719;28;19931;-78
2023/03/21 08:00:58;;;;;;;;;;;9.50;99.90;;;;;;5072237;28;19924;-78
2023/03/21 08:03:27;;;;;;;;;;;9.50;99.90;;;;;;5095616;28;19939;-78
2023/03/21 08:05:53;;;;;;;;;;;9.50;99.90;;;;;;5085893;28;20014;-78
2023/03/21 08:08:19;;;;;;;;;;;9.50;99.90;;;;;;5089058;28;19971;-78
2023/03/21 08:10:44;;;;;;;;;;;9.50;99.90;;;;;;5081218;28;20435;-78
2023/03/21 08:13:10;;;;;;;;;;;9.50;99.90;;;;;;5069403;28;19932;-79
2023/03/21 08:15:36;;;;;;;;;;;9.60;99.90;;;;;;5092997;28;19929;-79
2023/03/21 08:18:02;;;;;;;;;;;9.60;99.90;;;;;;5087134;28;19929;-79
2023/03/21 08:20:27;;;;;;;;;;;9.60;99.90;;;;;;5090529;28;19931;-79
2023/03/21 08:22:53;;;;;;;;;;;9.60;99.90;;;;;;5085931;28;19939;-79
2023/03/21 08:25:20;;;;;;;;;;;9.60;99.90;;;;;;5086390;28;20019;-78
2023/03/21 08:27:46;;;;;;;;;;;9.60;99.90;;;;;;5112227;27;19928;-79
2023/03/21 08:30:12;;;;;;;;;;;9.70;99.90;;;;;;5093679;28;20346;-79
2023/03/21 08:32:39;;;;;;;;;;;9.70;99.90;;;;;;5090852;28;19924;-79
2023/03/21 08:35:08;;;;;;;;;;;9.70;99.90;;;;;;5087257;28;19928;-79
2023/03/21 08:37:38;;;;;;;;;;;9.70;99.90;;;;;;5113156;27;19932;-80
2023/03/21 08:40:10;;;;;;;;;;;9.70;99.90;;;;;;5072900;28;19950;-79
2023/03/21 08:42:36;;;;;;;;;;;9.70;99.90;;;;;;5087807;28;19931;-79
2023/03/21 08:45:02;;;;;;;;;;;9.70;99.90;;;;;;5087347;28;19924;-79
2023/03/21 08:47:27;;;;;;;;;;;9.70;99.90;;;;;;5093288;28;19924;-79
2023/03/21 08:49:53;;;;;;;;;;;9.70;99.90;;;;;;5115772;27;19974;-79
2023/03/21 08:52:18;;;;;;;;;;;9.70;99.90;;;;;;5072053;28;19924;-79
2023/03/21 08:54:44;;;;;;;;;;;9.70;99.90;;;;;;5090828;28;19930;-79
2023/03/21 08:57:10;;;;;;;;;;;9.70;99.90;;;;;;5120321;27;19932;-78
2023/03/21 08:59:36;;;;;;;;;;;9.70;99.90;;;;;;5091161;28;19991;-79
2023/03/21 09:02:02;;;;;;;;;;;9.70;99.90;;;;;;5111028;28;19924;-78
2023/03/21 09:04:29;;;;;;;;;;;9.70;99.90;;;;;;5066728;28;19929;-79
2023/03/21 09:06:56;;;;;;;;;;;9.70;99.90;;;;;;5090630;28;19949;-78
2023/03/21 09:09:22;;;;;;;;;;;9.80;99.90;;;;;;5099182;28;19924;-78
2023/03/21 09:11:47;;;;;;;;;;;9.80;99.90;;;;;;5097670;28;19928;-78
2023/03/21 09:14:13;;;;;;;;;;;9.80;99.90;;;;;;5107551;28;19924;-78
2023/03/21 09:16:38;;;;;;;;;;;9.80;99.90;;;;;;5084599;28;19932;-79
2023/03/21 09:19:07;;;;;;;;;;;9.80;99.90;;;;;;5099748;28;20397;-78
2023/03/21 09:21:34;;;;;;;;;;;9.90;99.90;;;;;;5086812;28;19935;-79
2023/03/21 09:24:00;;;;;;;;;;;9.90;99.90;;;;;;5096390;28;20397;-77
2023/03/21 09:26:26;;;;;;;;;;;9.90;99.90;;;;;;5094238;28;19979;-78
2023/03/21 09:28:54;;;;;;;;;;;9.90;99.90;;;;;;5098842;28;19924;-78
2023/03/21 09:31:21;;;;;;;;;;;9.90;99.90;;;;;;5101504;28;19924;-79
2023/03/21 09:33:48;;;;;;;;;;;9.90;99.90;;;;;;5097374;28;20481;-78
2023/03/21 09:36:17;;;;;;;;;;;9.90;99.90;;;;;;5097968;28;19924;-78
2023/03/21 09:38:44;;;;;;;;;;;10.00;99.90;;;;;;5081688;28;19929;-78
2023/03/21 09:41:39;;;;;;;;;;;10.00;99.90;;;;;;5081917;28;19935;-77
2023/03/21 09:44:13;;;;;;;;;;;10.00;99.90;;;;;;5024418;28;20466;-78
2023/03/21 09:46:39;;;;;;;;;;;10.00;99.90;;;;;;5096746;28;19971;-79
2023/03/21 09:49:09;;;;;;;;;;;10.00;99.90;;;;;;5084385;28;19928;-79
2023/03/21 09:51:45;;;;;;;;;;;10.00;99.90;;;;;;5079122;28;20011;-79
2023/03/21 09:54:12;;;;;;;;;;;10.10;99.90;;;;;;5111606;28;20252;-79
2023/03/21 09:56:39;;;;;;;;;;;10.10;99.90;;;;;;5099264;28;20297;-78
2023/03/21 09:59:07;;;;;;;;;;;10.10;99.90;;;;;;5097488;28;19924;-78
2023/03/21 10:01:40;;;;;;;;;;;10.10;99.90;;;;;;5099068;28;20466;-79
2023/03/21 10:04:10;;;;;;;;;;;10.10;99.90;;;;;;5110251;28;19924;-79
2023/03/21 10:06:38;;;;;;;;;;;10.10;99.90;;;;;;5107327;28;19963;-79
2023/03/21 10:09:12;;;;;;;;;;;10.20;99.90;;;;;;5079257;28;19927;-79
2023/03/21 10:11:43;;;;;;;;;;;10.20;99.90;;;;;;5077909;28;20406;-79
2023/03/21 10:14:18;;;;;;;;;;;10.20;99.90;;;;;;5093369;28;19938;-79
2023/03/21 10:16:45;;;;;;;;;;;10.30;99.90;;;;;;5073556;28;19939;-80
2023/03/21 10:19:12;;;;;;;;;;;10.30;99.90;;;;;;5090610;28;19928;-80
2023/03/21 10:21:42;;;;;;;;;;;10.40;99.90;;;;;;5086977;28;19928;-79
2023/03/21 10:24:10;;;;;;;;;;;10.40;99.90;;;;;;5075170;28;19924;-79
2023/03/21 10:26:36;;;;;;;;;;;10.40;99.90;;;;;;5124946;28;20374;-78
2023/03/21 10:29:02;;;;;;;;;;;10.50;99.90;;;;;;5094426;28;19932;-78
2023/03/21 10:31:28;;;;;;;;;;;10.50;99.90;;;;;;5076982;28;20029;-78
2023/03/21 10:33:56;;;;;;;;;;;10.40;99.90;;;;;;5095657;28;19936;-78
2023/03/21 10:36:26;;;;;;;;;;;10.40;99.90;;;;;;5080113;28;19924;-78
2023/03/21 10:38:53;;;;;;;;;;;10.50;99.90;;;;;;5112315;28;19936;-79
2023/03/21 10:41:20;;;;;;;;;;;10.40;99.90;;;;;;5095244;28;19930;-78
2023/03/21 10:43:49;;;;;;;;;;;10.50;99.90;;;;;;5096984;28;19947;-79
2023/03/21 10:46:16;;;;;;;;;;;10.60;99.90;;;;;;5096196;28;19924;-79
2023/03/21 10:48:46;;;;;;;;;;;10.60;99.90;;;;;;5087373;28;19939;-80
2023/03/21 10:51:15;;;;;;;;;;;10.70;99.90;;;;;;5083276;28;19967;-80
2023/03/21 10:53:44;;;;;;;;;;;10.70;99.90;;;;;;5081743;28;20261;-80
2023/03/21 10:56:10;;;;;;;;;;;10.70;99.90;;;;;;5076903;28;19939;-79
2023/03/21 10:58:45;;;;;;;;;;;10.80;99.90;;;;;;5103945;28;19988;-80
2023/03/21 11:01:24;;;;;;;;;;;10.80;99.90;;;;;;5085762;28;19932;-80
2023/03/21 11:03:54;;;;;;;;;;;10.90;99.90;;;;;;5066703;28;19928;-80
2023/03/21 11:06:20;;;;;;;;;;;11.00;99.90;;;;;;5090388;28;19928;-80
2023/03/21 11:09:08;;;;;;;;;;;11.20;99.90;;;;;;5091160;28;19931;-79
2023/03/21 11:11:34;;;;;;;;;;;11.20;99.90;;;;;;5096842;28;19955;-79
2023/03/21 11:14:00;;;;;;;;;;;11.30;99.90;;;;;;5097004;28;19924;-79
2023/03/21 11:16:37;;;;;;;;;;;11.30;99.90;;;;;;5090343;28;19978;-79
2023/03/21 11:19:11;;;;;;;;;;;11.40;99.90;;;;;;5102153;28;19971;-78
2023/03/21 11:21:37;;;;;;;;;;;11.40;99.90;;;;;;5106357;28;19924;-78
2023/03/21 11:24:04;;;;;;;;;;;11.60;99.90;;;;;;5078621;28;19924;-78
2023/03/21 11:26:35;;;;;;;;;;;11.60;99.90;;;;;;5088439;28;19969;-78
2023/03/21 11:29:13;;;;;;;;;;;11.70;99.90;;;;;;5081616;28;19929;-78
2023/03/21 11:31:39;;;;;;;;;;;11.80;99.90;;;;;;5077901;28;19924;-78
2023/03/21 11:34:06;;;;;;;;;;;11.80;99.90;;;;;;5081377;28;19931;-78
2023/03/21 11:36:33;;;;;;;;;;;11.80;99.90;;;;;;5082793;28;19928;-78
2023/03/21 11:39:02;;;;;;;;;;;11.80;99.90;;;;;;5111854;27;19924;-78
2023/03/21 11:41:29;;;;;;;;;;;11.90;99.90;;;;;;5067743;28;19928;-78
2023/03/21 11:43:55;;;;;;;;;;;11.90;99.90;;;;;;5087223;28;19931;-78
2023/03/21 11:46:22;;;;;;;;;;;11.80;99.90;;;;;;5067387;28;19924;-78
2023/03/21 11:48:48;;;;;;;;;;;11.80;99.90;;;;;;5082839;28;19992;-77
2023/03/21 11:51:20;;;;;;;;;;;11.90;99.90;;;;;;5075893;28;19966;-78
2023/03/21 11:53:51;;;;;;;;;;;11.80;99.90;;;;;;5097636;28;19955;-77
2023/03/21 11:56:26;;;;;;;;;;;12.00;99.90;;;;;;5096859;28;20304;-77
2023/03/21 11:59:00;;;;;;;;;;;12.00;99.90;;;;;;5078510;28;19951;-79
2023/03/21 12:01:37;;;;;;;;;;;12.10;99.90;;;;;;5087456;28;19924;-79
2023/03/21 12:04:21;;;;;;;;;;;12.10;99.90;;;;;;5115714;28;19928;-79
2023/03/21 12:06:57;;;;;;;;;;;12.10;99.90;;;;;;5098753;28;19931;-79
2023/03/21 12:09:26;;;;;;;;;;;12.10;99.90;;;;;;5093646;28;20390;-79
2023/03/21 12:12:10;;;;;;;;;;;12.10;99.90;;;;;;5082985;28;19924;-79
2023/03/21 12:14:39;;;;;;;;;;;12.10;99.90;;;;;;5105124;28;19924;-79
2023/03/21 12:17:19;;;;;;;;;;;12.20;99.90;;;;;;5068150;28;20395;-80
2023/03/21 12:19:51;;;;;;;;;;;12.20;99.90;;;;;;5099410;28;19931;-79
2023/03/21 12:22:20;;;;;;;;;;;12.20;99.90;;;;;;5085135;28;19932;-79
2023/03/21 12:24:51;;;;;;;;;;;12.20;99.90;;;;;;5072915;28;19924;-79
2023/03/21 12:27:46;;;;;;;;;;;12.20;99.90;;;;;;5098089;28;19924;-79
2023/03/21 12:30:15;;;;;;;;;;;12.10;99.90;;;;;;5074284;28;19981;-80
2023/03/21 12:32:44;;;;;;;;;;;12.10;99.90;;;;;;5102753;28;19928;-80
2023/03/21 12:35:28;;;;;;;;;;;12.10;99.90;;;;;;5080681;28;19932;-79
2023/03/21 12:38:12;;;;;;;;;;;12.00;99.90;;;;;;5066200;28;19932;-81
2023/03/21 12:40:41;;;;;;;;;;;12.00;99.90;;;;;;5079011;28;20375;-81
2023/03/21 12:43:25;;;;;;;;;;;11.90;99.90;;;;;;5099486;28;19946;-81
2023/03/21 12:45:54;;;;;;;;;;;11.90;99.90;;;;;;5081383;28;19932;-81
2023/03/21 12:48:39;;;;;;;;;;;12.00;99.90;;;;;;5082137;28;19928;-81
2023/03/21 12:51:07;;;;;;;;;;;12.10;99.90;;;;;;5080826;28;19938;-80
2023/03/21 12:53:55;;;;;;;;;;;12.20;99.90;;;;;;5071022;28;19967;-79
2023/03/21 12:56:28;;;;;;;;;;;12.20;99.90;;;;;;5081136;28;19996;-80
2023/03/21 12:58:57;;;;;;;;;;;12.40;99.90;;;;;;5084681;28;19953;-80
2023/03/21 13:01:23;;;;;;;;;;;12.50;99.90;;;;;;5116951;28;19931;-80
2023/03/21 13:03:56;;;;;;;;;;;12.60;99.90;;;;;;5064161;28;19924;-81
2023/03/21 13:06:23;;;;;;;;;;;12.60;99.90;;;;;;5076475;28;19924;-81
2023/03/21 13:08:51;;;;;;;;;;;12.50;99.90;;;;;;5080917;28;19928;-81
2023/03/21 13:11:23;;;;;;;;;;;12.50;99.90;;;;;;5081800;28;20134;-81
2023/03/21 13:14:01;;;;;;;;;;;12.40;99.90;;;;;;5066693;28;20360;-80
2023/03/21 13:16:29;;;;;;;;;;;12.40;99.90;;;;;;5092101;28;20268;-81
2023/03/21 13:18:59;;;;;;;;;;;12.40;99.90;;;;;;5115308;28;19928;-80
2023/03/21 13:21:25;;;;;;;;;;;12.50;99.90;;;;;;5114271;28;19987;-80
2023/03/21 13:23:54;;;;;;;;;;;12.50;99.90;;;;;;5081670;28;19986;-80
2023/03/21 13:26:30;;;;;;;;;;;12.60;99.90;;;;;;5080786;28;19962;-81
2023/03/21 13:28:56;;;;;;;;;;;12.60;99.90;;;;;;5132284;27;19979;-80
2023/03/21 13:31:25;;;;;;;;;;;12.60;99.90;;;;;;5080107;28;19946;-81
2023/03/21 13:33:52;;;;;;;;;;;12.60;99.90;;;;;;5073122;28;19932;-84
2023/03/21 13:36:24;;;;;;;;;;;12.70;99.90;;;;;;5067277;28;20031;-85
2023/03/21 13:38:51;;;;;;;;;;;12.70;99.90;;;;;;5062532;28;19924;-84
2023/03/21 13:41:19;;;;;;;;;;;12.70;99.90;;;;;;5087972;28;19924;-85
2023/03/21 13:43:51;;;;;;;;;;;12.70;99.90;;;;;;5095540;28;19924;-83
2023/03/21 13:46:25;;;;;;;;;;;12.70;99.90;;;;;;5094793;28;19982;-84
2023/03/21 13:48:51;;;;;;;;;;;12.70;99.90;;;;;;5082224;28;20039;-83
2023/03/21 13:51:34;;;;;;;;;;;12.70;99.90;;;;;;5076324;28;19936;-84
2023/03/21 13:53:59;;;;;;;;;;;12.70;99.90;;;;;;5073963;28;19928;-84
2023/03/21 13:56:25;;;;;;;;;;;12.70;99.90;;;;;;5098800;28;19951;-84
2023/03/21 13:58:52;;;;;;;;;;;12.80;99.90;;;;;;5068667;28;19991;-84
2023/03/21 14:01:25;;;;;;;;;;;12.80;99.90;;;;;;5089459;28;19924;-84
2023/03/21 14:04:11;;;;;;;;;;;12.80;99.90;;;;;;5067502;28;19928;-83
2023/03/21 14:06:37;;;;;;;;;;;12.80;99.90;;;;;;5087875;28;19943;-80
2023/03/21 14:09:03;;;;;;;;;;;12.90;99.90;;;;;;5103671;28;19924;-80
2023/03/21 14:11:31;;;;;;;;;;;13.00;99.90;;;;;;5078473;28;19975;-80
2023/03/21 14:13:59;;;;;;;;;;;13.20;99.90;;;;;;5072069;28;19932;-80
2023/03/21 14:16:27;;;;;;;;;;;13.30;99.90;;;;;;5054550;28;19925;-80
2023/03/21 14:19:04;;;;;;;;;;;13.50;99.90;;;;;;5107942;28;19991;-80
2023/03/21 14:21:34;;;;;;;;;;;13.70;99.90;;;;;;5086692;28;19924;-80
2023/03/21 14:24:11;;;;;;;;;;;13.70;99.90;;;;;;5099509;28;19928;-80
2023/03/21 14:26:39;;;;;;;;;;;13.60;99.90;;;;;;5082466;28;19924;-81
2023/03/21 14:29:06;;;;;;;;;;;13.60;99.90;;;;;;5102440;28;19980;-81
2023/03/21 14:31:32;;;;;;;;;;;13.50;99.90;;;;;;5099884;28;19946;-80
2023/03/21 14:34:00;;;;;;;;;;;13.40;99.90;;;;;;5100439;28;19924;-81